Time;durP1;ratioP1;P1;durP2;ratioP2;P2;SDS_P1;SDS_P2;PMS_P1;PMS_P2;Temp;Humidity;BMP_temperature;BMP_pressure;BME280_temperature;BME280_humidity;BME280_pressure;Samples;Min_cycle;Max_cycle;Signal;HPM_P1;HPM_P2
2023/06/10 00:00:46;;;;;;;10.73;5.57;;;;;;;15.00;75.54;101343.66;5035325;28;20359;-56
2023/06/10 00:03:14;;;;;;;13.93;5.38;;;;;;;14.97;75.44;101333.16;5034702;28;20488;-56
2023/06/10 00:05:41;;;;;;;11.77;5.65;;;;;;;14.95;75.61;101340.38;5034740;28;20437;-56
2023/06/10 00:08:07;;;;;;;21.10;6.85;;;;;;;14.92;76.10;101340.53;5035330;28;20069;-57
2023/06/10 00:10:35;;;;;;;11.73;5.18;;;;;;;14.92;75.85;101340.53;5036836;28;20051;-56
2023/06/10 00:13:04;;;;;;;18.83;6.15;;;;;;;14.87;76.09;101340.78;5035662;28;20119;-56
2023/06/10 00:15:31;;;;;;;21.58;5.72;;;;;;;14.89;76.18;101340.72;5018029;28;20128;-57
2023/06/10 00:17:58;;;;;;;18.23;5.50;;;;;;;14.81;76.79;101339.34;5033443;28;20097;-56
2023/06/10 00:20:25;;;;;;;23.40;7.53;;;;;;;14.84;76.56;101331.19;5034719;28;20072;-56
2023/06/10 00:22:52;;;;;;;13.93;5.85;;;;;;;14.81;76.83;101326.03;5023960;28;20057;-56
2023/06/10 00:25:18;;;;;;;15.82;5.82;;;;;;;14.81;76.79;101344.66;5015661;28;20050;-56
2023/06/10 00:27:45;;;;;;;13.27;5.32;;;;;;;14.72;76.88;101337.16;5024081;28;20107;-56
2023/06/10 00:30:13;;;;;;;14.50;5.93;;;;;;;14.74;77.17;101343.25;5034408;28;20411;-56
2023/06/10 00:32:40;;;;;;;11.75;6.07;;;;;;;14.70;76.95;101346.19;5016664;28;20055;-57
2023/06/10 00:35:07;;;;;;;13.68;5.82;;;;;;;14.64;77.38;101339.38;5034765;28;20132;-56
2023/06/10 00:37:35;;;;;;;16.88;6.13;;;;;;;14.63;77.87;101330.53;5032364;28;20068;-57
2023/06/10 00:40:06;;;;;;;14.90;5.60;;;;;;;14.69;77.59;101332.00;5034978;28;20049;-57
2023/06/10 00:42:32;;;;;;;19.85;6.35;;;;;;;14.69;77.25;101345.31;5033994;28;20054;-56
2023/06/10 00:44:59;;;;;;;9.75;5.28;;;;;;;14.64;77.29;101339.38;5033622;28;20054;-57
2023/06/10 00:47:27;;;;;;;13.48;5.30;;;;;;;14.59;77.94;101333.41;5033167;28;20464;-56
2023/06/10 00:49:54;;;;;;;10.93;5.18;;;;;;;14.58;77.75;101342.31;5015979;28;20073;-57
2023/06/10 00:52:25;;;;;;;10.55;5.30;;;;;;;14.55;77.60;101343.34;5033063;28;20088;-57
2023/06/10 00:54:51;;;;;;;18.27;6.87;;;;;;;14.50;77.30;101335.63;5030508;28;20140;-57
2023/06/10 00:57:18;;;;;;;20.15;6.47;;;;;;;14.48;78.00;101344.59;5031683;28;20383;-57
2023/06/10 00:59:48;;;;;;;17.45;6.30;;;;;;;14.49;77.74;101344.53;5032111;28;20049;-56
2023/06/10 01:02:14;;;;;;;17.23;5.85;;;;;;;14.37;78.18;101334.56;5032839;28;20473;-57
2023/06/10 01:04:41;;;;;;;15.23;4.90;;;;;;;14.36;78.47;101338.13;5026443;28;20381;-57
2023/06/10 01:07:17;;;;;;;13.88;5.75;;;;;;;14.40;78.08;101345.03;5032843;28;20048;-57
2023/06/10 01:09:46;;;;;;;16.42;5.20;;;;;;;14.32;78.27;101345.41;5032685;28;20793;-57
2023/06/10 01:12:23;;;;;;;11.27;5.30;;;;;;;14.29;78.60;101342.06;5032804;28;20084;-57
2023/06/10 01:14:50;;;;;;;14.82;5.25;;;;;;;14.25;78.90;101340.50;5030497;28;20111;-57
2023/06/10 01:17:18;;;;;;;18.30;5.25;;;;;;;14.23;78.43;101334.41;5031062;28;20132;-57
2023/06/10 01:19:52;;;;;;;14.65;4.78;;;;;;;14.18;78.44;101347.94;5033332;28;20077;-55
2023/06/10 01:22:20;;;;;;;18.30;6.07;;;;;;;14.19;78.72;101352.31;5027646;28;20286;-56
2023/06/10 01:24:50;;;;;;;14.02;5.03;;;;;;;14.12;79.04;101351.78;5017867;28;20063;-56
2023/06/10 01:27:21;;;;;;;10.82;5.55;;;;;;;14.10;79.25;101353.63;5028582;28;20052;-56
2023/06/10 01:29:59;;;;;;;16.77;6.18;;;;;;;14.07;78.91;101353.78;5027275;28;20069;-56
2023/06/10 01:32:34;;;;;;;16.92;6.07;;;;;;;13.99;79.15;101345.31;5023986;28;20141;-57
2023/06/10 01:35:02;;;;;;;12.90;4.97;;;;;;;14.02;79.50;101347.84;5028958;28;20450;-56
2023/06/10 01:37:30;;;;;;;16.80;5.30;;;;;;;14.04;79.26;101359.28;5029398;28;20140;-56
2023/06/10 01:39:58;;;;;;;12.73;5.68;;;;;;;13.97;79.35;101357.00;5028547;28;20076;-57
2023/06/10 01:42:25;;;;;;;14.05;6.78;;;;;;;13.91;80.01;101350.16;5025912;28;20053;-56
2023/06/10 01:44:52;;;;;;;14.48;4.95;;;;;;;13.90;79.82;101351.97;5024744;28;20133;-57
2023/06/10 01:47:19;;;;;;;20.35;5.28;;;;;;;13.86;80.03;101355.75;5021338;28;20496;-57
2023/06/10 01:49:45;;;;;;;12.30;5.03;;;;;;;13.89;80.34;101360.03;5025986;28;20452;-57
2023/06/10 01:52:12;;;;;;;18.05;6.95;;;;;;;13.85;80.04;101353.16;5024619;28;20132;-57
2023/06/10 01:54:39;;;;;;;16.38;5.10;;;;;;;13.86;80.10;101355.75;5023090;28;20060;-56
2023/06/10 01:57:06;;;;;;;20.85;6.88;;;;;;;13.82;80.70;101363.94;5021637;28;20474;-57
2023/06/10 01:59:32;;;;;;;18.33;5.88;;;;;;;13.72;80.69;101368.84;5032490;28;20073;-57
2023/06/10 02:01:59;;;;;;;25.83;6.70;;;;;;;13.68;81.18;101362.81;5025352;28;20088;-57
2023/06/10 02:04:26;;;;;;;14.40;5.50;;;;;;;13.65;81.21;101368.28;5026384;28;20051;-57
2023/06/10 02:06:53;;;;;;;11.95;4.78;;;;;;;13.64;81.13;101355.94;5022726;28;20459;-57
2023/06/10 02:09:19;;;;;;;12.77;5.85;;;;;;;13.64;81.21;101365.69;5022546;28;20052;-57
2023/06/10 02:11:46;;;;;;;13.98;5.68;;;;;;;13.63;81.13;101354.19;5023250;28;20141;-57
2023/06/10 02:14:13;;;;;;;13.20;5.60;;;;;;;13.66;81.16;101354.06;5025897;28;20409;-57
2023/06/10 02:16:39;;;;;;;17.67;5.43;;;;;;;13.66;81.10;101359.34;5022509;28;20049;-57
2023/06/10 02:19:06;;;;;;;16.48;5.50;;;;;;;13.63;81.20;101354.19;5022879;28;20153;-57
2023/06/10 02:21:34;;;;;;;11.55;5.35;;;;;;;13.61;81.23;101366.69;5021909;28;20339;-57
2023/06/10 02:24:01;;;;;;;13.73;5.78;;;;;;;13.61;81.56;101361.38;5022745;28;20076;-57
2023/06/10 02:26:27;;;;;;;13.80;5.65;;;;;;;13.55;81.50;101359.91;5024233;28;20144;-57
2023/06/10 02:28:54;;;;;;;16.05;5.53;;;;;;;13.58;81.45;101357.09;5023149;28;20049;-57
2023/06/10 02:31:21;;;;;;;14.02;4.88;;;;;;;13.50;81.99;101359.28;5026238;28;20050;-57
2023/06/10 02:33:48;;;;;;;12.45;4.63;;;;;;;13.48;81.99;101365.56;5030294;28;20057;-57
2023/06/10 02:36:15;;;;;;;14.18;6.97;;;;;;;13.46;82.13;101356.84;5026121;28;20057;-57
2023/06/10 02:38:42;;;;;;;17.52;6.28;;;;;;;13.48;82.07;101362.91;5024745;28;20046;-58
2023/06/10 02:41:09;;;;;;;15.02;6.00;;;;;;;13.43;82.45;101360.47;5027518;28;20081;-56
2023/06/10 02:43:35;;;;;;;16.08;5.05;;;;;;;13.44;82.27;101364.00;5022257;28;20046;-57
2023/06/10 02:46:02;;;;;;;11.82;5.30;;;;;;;13.38;82.65;101368.66;5028938;28;20052;-57
2023/06/10 02:48:28;;;;;;;15.75;5.40;;;;;;;13.37;82.70;101363.41;5026961;28;20053;-56
2023/06/10 02:50:55;;;;;;;12.52;5.30;;;;;;;13.34;82.65;101352.97;5025257;28;20466;-56
2023/06/10 02:53:22;;;;;;;14.70;4.97;;;;;;;13.36;82.92;101357.25;5022686;28;20045;-57
2023/06/10 02:55:49;;;;;;;22.42;6.68;;;;;;;13.32;82.76;101366.31;5026401;28;20056;-57
2023/06/10 02:58:15;;;;;;;14.82;5.13;;;;;;;13.36;82.81;101361.72;5022691;28;20409;-57
2023/06/10 03:00:43;;;;;;;17.75;5.95;;;;;;;13.38;82.50;101371.31;5026640;28;20045;-56
2023/06/10 03:03:10;;;;;;;10.50;5.05;;;;;;;13.33;82.74;101362.72;5025229;28;20088;-57
2023/06/10 03:05:37;;;;;;;21.00;7.30;;;;;;;13.30;83.14;101367.28;5027837;28;20061;-57
2023/06/10 03:08:03;;;;;;;17.33;6.53;;;;;;;13.31;83.24;101369.88;5022394;28;20065;-57
2023/06/10 03:10:31;;;;;;;15.48;5.43;;;;;;;13.31;83.55;101369.00;5025248;28;20400;-57
2023/06/10 03:12:58;;;;;;;13.60;4.47;;;;;;;13.33;83.42;101373.34;5028275;28;20049;-57
2023/06/10 03:15:25;;;;;;;14.30;5.70;;;;;;;13.32;83.81;101376.03;5025197;28;20056;-56
2023/06/10 03:17:51;;;;;;;14.75;5.55;;;;;;;13.37;83.67;101377.59;5024295;28;20052;-56
2023/06/10 03:20:18;;;;;;;17.25;6.28;;;;;;;13.37;83.72;101374.94;5024762;28;20049;-57
2023/06/10 03:22:44;;;;;;;12.82;6.13;;;;;;;13.36;83.82;101378.50;5026265;28;20141;-58
2023/06/10 03:25:13;;;;;;;13.73;5.40;;;;;;;13.42;83.67;101374.72;5026393;28;20049;-56
2023/06/10 03:27:42;;;;;;;14.93;5.47;;;;;;;13.40;83.34;101379.22;5026756;28;20041;-58
2023/06/10 03:30:09;;;;;;;15.77;6.15;;;;;;;13.38;83.45;101373.97;5024767;28;20045;-58
2023/06/10 03:32:36;;;;;;;16.73;5.78;;;;;;;13.35;83.54;101371.47;5026850;28;20136;-57
2023/06/10 03:35:03;;;;;;;13.50;6.25;;;;;;;13.38;83.66;101371.31;5024931;28;20139;-57
2023/06/10 03:37:30;;;;;;;18.58;6.30;;;;;;;13.40;83.24;101382.75;5027387;28;20050;-57
2023/06/10 03:39:56;;;;;;;23.58;8.02;;;;;;;13.40;83.67;101380.09;5024142;28;20113;-57
2023/06/10 03:42:23;;;;;;;17.13;5.20;;;;;;;13.41;83.44;101380.94;5025293;28;20490;-57
2023/06/10 03:44:49;;;;;;;15.93;5.90;;;;;;;13.43;83.08;101378.22;5024121;28;20053;-57
2023/06/10 03:47:16;;;;;;;18.17;6.03;;;;;;;13.46;83.42;101383.38;5028575;28;20052;-58
2023/06/10 03:49:42;;;;;;;13.30;5.43;;;;;;;13.45;83.12;101376.34;5024630;28;20042;-57
2023/06/10 03:52:09;;;;;;;14.35;6.05;;;;;;;13.45;83.33;101377.19;5027713;28;20159;-59
2023/06/10 03:54:36;;;;;;;19.73;6.28;;;;;;;13.50;83.34;101383.16;5026363;28;20135;-57
2023/06/10 03:57:03;;;;;;;12.20;6.55;;;;;;;13.49;83.49;101383.25;5025832;28;20132;-57
2023/06/10 03:59:29;;;;;;;17.00;6.05;;;;;;;13.54;83.50;101391.84;5025218;28;20056;-57
2023/06/10 04:01:56;;;;;;;16.77;6.45;;;;;;;13.59;83.25;101389.81;5025376;28;20050;-57
2023/06/10 04:04:23;;;;;;;14.57;5.82;;;;;;;13.61;83.02;101385.28;5026281;28;20048;-57
2023/06/10 04:06:50;;;;;;;14.63;6.25;;;;;;;13.66;83.00;101393.03;5022947;28;20042;-57
2023/06/10 04:09:17;;;;;;;18.73;5.72;;;;;;;13.65;83.09;101389.53;5023640;28;20415;-57
2023/06/10 04:11:43;;;;;;;15.05;6.35;;;;;;;13.71;82.80;101399.84;5024032;28;20132;-57
2023/06/10 04:14:10;;;;;;;15.30;5.95;;;;;;;13.80;82.76;101392.34;5022186;28;20402;-57
2023/06/10 04:16:38;;;;;;;11.02;5.65;;;;;;;13.84;82.44;101399.25;5024559;28;20048;-57
2023/06/10 04:19:04;;;;;;;11.52;6.07;;;;;;;13.87;81.99;101396.44;5025483;28;20080;-57
2023/06/10 04:21:32;;;;;;;19.27;7.40;;;;;;;13.89;82.53;101398.09;5027828;28;20046;-58
2023/06/10 04:23:59;;;;;;;16.98;7.20;;;;;;;13.92;82.18;101391.78;5027628;28;20046;-57
2023/06/10 04:26:27;;;;;;;17.90;6.88;;;;;;;13.93;82.20;101398.81;5023416;28;20046;-57
2023/06/10 04:28:53;;;;;;;15.52;6.15;;;;;;;14.00;82.14;101394.06;5028182;28;20109;-57
2023/06/10 04:31:20;;;;;;;13.95;5.20;;;;;;;14.08;81.91;101400.69;5040742;28;20362;-57
2023/06/10 04:33:47;;;;;;;18.15;6.15;;;;;;;14.12;81.26;101396.97;5024850;28;20068;-57
2023/06/10 04:36:14;;;;;;;15.73;5.72;;;;;;;14.19;81.16;101394.84;5025154;28;20045;-57
2023/06/10 04:38:41;;;;;;;8.95;5.82;;;;;;;14.20;81.28;101395.69;5024146;28;20054;-57
2023/06/10 04:41:07;;;;;;;17.25;5.78;;;;;;;14.17;81.37;101399.38;5024035;28;20046;-57
2023/06/10 04:43:34;;;;;;;16.05;6.22;;;;;;;14.20;80.81;101390.38;5022929;28;20055;-56
2023/06/10 04:46:01;;;;;;;20.77;6.80;;;;;;;14.23;81.44;101400.88;5024422;28;20053;-57
2023/06/10 04:48:28;;;;;;;16.70;6.32;;;;;;;14.19;80.79;101405.50;5029724;28;20049;-57
2023/06/10 04:50:56;;;;;;;22.65;6.43;;;;;;;14.22;81.31;101405.34;5034308;28;20060;-57
2023/06/10 04:53:22;;;;;;;18.77;8.27;;;;;;;14.29;81.06;101405.88;5029585;28;20053;-57
2023/06/10 04:55:49;;;;;;;16.88;7.35;;;;;;;14.31;80.58;101415.47;5034394;28;20050;-57
2023/06/10 04:58:15;;;;;;;15.35;6.78;;;;;;;14.33;80.91;101407.44;5032279;28;20716;-57
2023/06/10 05:00:43;;;;;;;11.70;6.13;;;;;;;14.39;80.44;101411.59;5032508;28;20053;-57
2023/06/10 05:03:10;;;;;;;16.77;6.20;;;;;;;14.48;80.44;101417.31;5034223;28;20141;-57
2023/06/10 05:05:37;;;;;;;19.60;8.18;;;;;;;14.60;80.01;101409.66;5033659;28;20081;-57
2023/06/10 05:08:03;;;;;;;14.35;6.50;;;;;;;14.70;79.18;101410.03;5033771;28;20092;-57
2023/06/10 05:10:34;;;;;;;15.82;6.85;;;;;;;14.81;79.24;101408.53;5033769;28;20161;-57
2023/06/10 05:13:00;;;;;;;19.63;6.55;;;;;;;14.89;78.87;101409.91;5033500;28;20049;-57
2023/06/10 05:15:27;;;;;;;17.25;6.70;;;;;;;14.89;78.65;101410.75;5032599;28;20136;-57
2023/06/10 05:17:53;;;;;;;16.92;6.55;;;;;;;15.01;78.33;101420.75;5033621;28;20053;-57
2023/06/10 05:20:20;;;;;;;14.50;6.43;;;;;;;15.10;78.35;101424.72;5033614;28;20053;-57
2023/06/10 05:22:46;;;;;;;15.38;6.60;;;;;;;15.18;77.86;101422.50;5033861;28;20462;-57
2023/06/10 05:25:13;;;;;;;16.60;6.75;;;;;;;15.26;77.70;101423.91;5033272;28;20045;-57
2023/06/10 05:27:41;;;;;;;19.15;6.78;;;;;;;15.39;76.46;101427.59;5033483;28;20064;-57
2023/06/10 05:30:10;;;;;;;16.85;6.30;;;;;;;15.49;76.54;101426.16;5033608;28;20102;-57
2023/06/10 05:32:37;;;;;;;15.20;6.45;;;;;;;15.53;76.33;101438.38;5023368;28;20480;-57
2023/06/10 05:35:04;;;;;;;14.20;6.50;;;;;;;15.68;74.74;101430.47;5033797;28;20119;-57
2023/06/10 05:37:31;;;;;;;17.40;7.03;;;;;;;15.80;75.29;101428.94;5033583;28;20045;-57
2023/06/10 05:39:57;;;;;;;14.38;8.25;;;;;;;15.73;74.38;101436.41;5033593;28;20057;-57
2023/06/10 05:42:24;;;;;;;13.93;6.72;;;;;;;15.82;74.37;101427.88;5031676;28;20041;-57
2023/06/10 05:44:50;;;;;;;14.40;6.60;;;;;;;15.95;74.08;101439.59;5032752;28;20409;-57
2023/06/10 05:47:17;;;;;;;13.30;6.63;;;;;;;16.01;73.18;101437.50;5033551;28;20041;-57
2023/06/10 05:49:45;;;;;;;15.57;7.78;;;;;;;16.05;73.49;101433.72;5032610;28;20045;-57
2023/06/10 05:52:12;;;;;;;16.73;7.35;;;;;;;16.15;72.93;101437.59;5029224;28;20051;-58
2023/06/10 05:54:38;;;;;;;15.63;7.00;;;;;;;16.24;72.57;101437.03;5015054;28;20053;-56
2023/06/10 05:57:05;;;;;;;15.05;7.05;;;;;;;16.37;72.24;101438.97;5031797;28;20049;-57
2023/06/10 05:59:32;;;;;;;14.18;7.45;;;;;;;16.22;71.52;101435.41;5031964;28;20045;-57
2023/06/10 06:01:58;;;;;;;16.33;7.05;;;;;;;16.22;72.36;101435.41;5032431;28;20045;-56
2023/06/10 06:04:25;;;;;;;15.93;7.07;;;;;;;16.33;71.95;101439.16;5031266;28;20144;-57
2023/06/10 06:06:52;;;;;;;15.88;6.70;;;;;;;16.50;71.28;101439.97;5030283;28;20049;-57
2023/06/10 06:09:18;;;;;;;17.33;7.40;;;;;;;16.40;71.15;101446.81;5030842;28;20492;-57
2023/06/10 06:11:45;;;;;;;16.00;7.70;;;;;;;16.41;71.31;101448.50;5031551;28;20052;-57
2023/06/10 06:14:11;;;;;;;14.13;6.60;;;;;;;16.31;71.11;101441.06;5032337;28;20171;-57
2023/06/10 06:16:38;;;;;;;16.67;7.65;;;;;;;16.19;71.34;101444.44;5032486;28;20449;-57
2023/06/10 06:19:06;;;;;;;24.05;6.85;;;;;;;16.16;71.89;101447.28;5031257;28;20049;-58
2023/06/10 06:21:32;;;;;;;20.20;7.00;;;;;;;16.20;71.87;101447.97;5031378;28;20148;-57
2023/06/10 06:23:59;;;;;;;14.82;7.90;;;;;;;16.21;71.75;101455.88;5032472;28;20111;-57
2023/06/10 06:26:26;;;;;;;24.13;7.85;;;;;;;16.34;71.68;101451.53;5031586;28;20084;-57
2023/06/10 06:28:53;;;;;;;12.00;7.30;;;;;;;16.40;70.94;101457.47;5032965;28;20054;-57
2023/06/10 06:31:20;;;;;;;22.45;7.85;;;;;;;16.53;70.79;101458.47;5031596;28;20409;-57
2023/06/10 06:33:46;;;;;;;15.93;7.03;;;;;;;16.62;70.45;101463.22;5032229;28;20573;-57
2023/06/10 06:36:13;;;;;;;16.35;7.20;;;;;;;16.63;70.04;101456.09;5030899;28;20100;-57
2023/06/10 06:38:39;;;;;;;17.98;7.47;;;;;;;16.55;70.46;101464.56;5032986;28;20132;-57
2023/06/10 06:41:06;;;;;;;14.10;7.15;;;;;;;16.60;70.36;101467.81;5031906;28;20049;-57
2023/06/10 06:43:33;;;;;;;14.60;7.40;;;;;;;16.58;70.47;101472.38;5032950;28;20049;-57
2023/06/10 06:45:59;;;;;;;13.20;6.80;;;;;;;16.87;69.23;101469.81;5030825;28;20540;-57
2023/06/10 06:48:26;;;;;;;19.63;7.57;;;;;;;17.04;68.63;101461.63;5033059;28;20132;-57
2023/06/10 06:50:52;;;;;;;18.35;7.03;;;;;;;17.18;67.96;101467.91;5032599;28;20106;-57
2023/06/10 06:53:19;;;;;;;13.43;6.70;;;;;;;17.31;67.58;101468.88;5032115;28;20132;-57
2023/06/10 06:55:45;;;;;;;15.82;7.00;;;;;;;17.47;67.00;101468.75;5033012;28;20041;-57
2023/06/10 06:58:12;;;;;;;19.25;7.78;;;;;;;17.87;65.97;101470.72;5032106;28;20073;-57
2023/06/10 07:00:39;;;;;;;16.48;6.68;;;;;;;18.19;64.76;101470.41;5033257;28;20458;-57
2023/06/10 07:03:05;;;;;;;17.40;6.88;;;;;;;18.37;64.61;101474.53;5031353;28;20377;-58
2023/06/10 07:05:32;;;;;;;18.77;7.85;;;;;;;18.64;63.59;101471.81;5032864;28;20050;-56
2023/06/10 07:07:59;;;;;;;12.77;7.38;;;;;;;18.75;63.66;101468.41;5032807;28;20053;-57
2023/06/10 07:10:26;;;;;;;15.30;8.00;;;;;;;18.60;63.57;101474.81;5032643;28;20115;-57
2023/06/10 07:12:53;;;;;;;15.98;8.15;;;;;;;18.59;64.33;101473.13;5030839;28;20149;-57
2023/06/10 07:15:19;;;;;;;13.95;7.30;;;;;;;18.62;63.99;101471.06;5029398;28;20097;-57
2023/06/10 07:17:46;;;;;;;14.75;7.40;;;;;;;18.73;63.98;101470.31;5036415;28;20041;-57
2023/06/10 07:20:14;;;;;;;15.05;7.55;;;;;;;19.05;63.07;101475.31;5036317;28;20049;-57
2023/06/10 07:22:42;;;;;;;9.60;6.93;;;;;;;19.43;61.69;101477.09;5035031;28;20076;-57
2023/06/10 07:25:09;;;;;;;14.50;6.72;;;;;;;19.72;61.12;101479.50;5035687;28;20053;-57
2023/06/10 07:27:36;;;;;;;9.68;6.38;;;;;;;19.91;60.78;101474.53;5034324;28;20067;-57
2023/06/10 07:30:06;;;;;;;12.15;6.95;;;;;;;19.83;59.92;101476.94;5033867;28;20056;-57
2023/06/10 07:32:33;;;;;;;15.60;8.13;;;;;;;19.83;59.81;101476.94;5032636;28;20059;-57
2023/06/10 07:34:59;;;;;;;11.85;6.85;;;;;;;20.02;59.34;101488.97;5029819;28;20049;-57
2023/06/10 07:37:26;;;;;;;16.67;7.25;;;;;;;20.12;58.63;101487.31;5035873;28;20077;-57
2023/06/10 07:39:53;;;;;;;16.88;7.60;;;;;;;19.91;59.62;101490.63;5034259;28;20077;-57
2023/06/10 07:42:19;;;;;;;11.40;7.13;;;;;;;20.07;59.38;101484.97;5035006;28;20045;-57
2023/06/10 07:44:46;;;;;;;16.35;7.45;;;;;;;19.81;60.92;101489.56;5035187;28;20612;-57
2023/06/10 07:47:13;;;;;;;16.08;7.35;;;;;;;20.02;60.70;101483.59;5032587;28;20049;-57
2023/06/10 07:49:40;;;;;;;13.13;6.63;;;;;;;20.14;59.83;101491.59;5034473;28;20542;-58
2023/06/10 07:52:07;;;;;;;14.57;7.45;;;;;;;19.90;60.62;101483.53;5036690;28;20049;-58
2023/06/10 07:54:34;;;;;;;13.88;6.82;;;;;;;20.15;60.09;101487.09;5035110;28;20449;-57
2023/06/10 07:57:00;;;;;;;17.42;8.50;;;;;;;20.41;58.75;101484.28;5035327;28;20128;-57
2023/06/10 07:59:27;;;;;;;25.77;8.20;;;;;;;20.76;58.35;101478.94;5035258;28;20046;-57
2023/06/10 08:01:53;;;;;;;13.93;6.85;;;;;;;21.09;57.69;101477.28;5034789;28;20111;-57
2023/06/10 08:04:20;;;;;;;17.67;7.05;;;;;;;21.25;56.90;101477.78;5030605;28;20060;-57
2023/06/10 08:06:47;;;;;;;14.18;6.65;;;;;;;21.29;56.94;101482.91;5033467;28;20077;-57
2023/06/10 08:09:13;;;;;;;9.18;6.72;;;;;;;21.37;56.70;101492.06;5033430;28;20057;-57
2023/06/10 08:11:40;;;;;;;12.75;7.03;;;;;;;21.31;56.55;101492.53;5032602;28;20427;-57
2023/06/10 08:14:07;;;;;;;16.20;7.82;;;;;;;21.57;56.20;101492.31;5033287;28;20037;-56
2023/06/10 08:16:33;;;;;;;14.30;7.18;;;;;;;21.47;56.79;101494.03;5032380;28;20133;-57
2023/06/10 08:19:00;;;;;;;17.77;6.50;;;;;;;21.56;56.21;101501.34;5016510;28;20135;-56
2023/06/10 08:21:28;;;;;;;16.88;7.47;;;;;;;21.50;56.15;101499.19;5033593;28;20049;-57
2023/06/10 08:23:55;;;;;;;11.75;7.43;;;;;;;21.33;56.72;101498.66;5032645;28;20052;-56
2023/06/10 08:26:22;;;;;;;12.40;7.25;;;;;;;21.41;56.39;101498.91;5033628;28;20148;-57
2023/06/10 08:28:48;;;;;;;13.70;7.60;;;;;;;21.25;57.02;101498.41;5033239;28;20076;-56
2023/06/10 08:31:15;;;;;;;12.48;7.85;;;;;;;21.26;55.99;101505.50;5034135;28;20060;-57
2023/06/10 08:33:42;;;;;;;13.95;7.45;;;;;;;21.30;56.39;101504.28;5031789;28;20046;-56
2023/06/10 08:36:09;;;;;;;13.65;7.32;;;;;;;21.51;56.14;101495.50;5033444;28;20049;-56
2023/06/10 08:38:35;;;;;;;16.73;7.75;;;;;;;21.89;55.46;101502.28;5027469;28;20157;-56
2023/06/10 08:41:05;;;;;;;16.90;7.68;;;;;;;22.08;54.72;101491.72;5014750;28;20054;-56
2023/06/10 08:43:36;;;;;;;11.50;7.40;;;;;;;22.34;54.27;101496.81;5027554;28;20057;-56
2023/06/10 08:46:03;;;;;;;18.77;6.82;;;;;;;22.33;53.92;101501.34;5034121;28;20406;-56
2023/06/10 08:48:33;;;;;;;14.70;7.60;;;;;;;22.12;54.06;101498.56;5034350;28;20049;-56
2023/06/10 08:51:03;;;;;;;15.50;7.60;;;;;;;22.30;53.75;101503.44;5033062;28;20089;-56
2023/06/10 08:53:33;;;;;;;14.10;6.60;;;;;;;22.50;53.15;101507.16;5033412;28;20053;-56
2023/06/10 08:56:04;;;;;;;12.43;7.60;;;;;;;22.48;53.24;101507.28;5033768;28;20418;-56
2023/06/10 08:58:33;;;;;;;14.07;6.80;;;;;;;22.62;53.18;101510.63;5032495;28;20045;-57
2023/06/10 09:01:00;;;;;;;13.55;7.53;;;;;;;22.59;52.63;101506.38;5033159;28;20136;-56
2023/06/10 09:03:27;;;;;;;13.70;7.65;;;;;;;22.82;52.77;101496.34;5033018;28;20492;-57
2023/06/10 09:05:56;;;;;;;14.95;7.32;;;;;;;23.02;52.07;101505.38;5016660;28;20077;-56
2023/06/10 09:08:23;;;;;;;11.60;6.88;;;;;;;23.24;51.12;101506.22;5032397;28;20116;-57
2023/06/10 09:10:50;;;;;;;14.80;7.47;;;;;;;23.42;50.66;101501.91;5033964;28;20088;-56
2023/06/10 09:13:18;;;;;;;14.40;7.22;;;;;;;23.14;51.33;101500.78;5032044;28;20053;-57
2023/06/10 09:15:45;;;;;;;16.90;6.88;;;;;;;23.33;50.54;101505.44;5032535;28;20128;-56
2023/06/10 09:18:12;;;;;;;16.38;7.93;;;;;;;23.31;50.43;101511.94;5030991;28;20430;-57
2023/06/10 09:20:39;;;;;;;13.93;6.72;;;;;;;23.52;50.31;101503.78;5032519;28;20041;-56
2023/06/10 09:23:07;;;;;;;17.13;7.85;;;;;;;23.48;51.12;101499.69;5029634;28;20111;-56
2023/06/10 09:25:36;;;;;;;13.55;6.38;;;;;;;23.62;49.93;101489.34;5032378;28;20108;-56
2023/06/10 09:28:04;;;;;;;16.58;7.18;;;;;;;23.98;48.63;101495.16;5032818;28;20461;-56
2023/06/10 09:30:33;;;;;;;16.17;6.65;;;;;;;23.91;48.83;101499.38;5031782;28;20045;-56
2023/06/10 09:33:02;;;;;;;14.35;7.40;;;;;;;23.77;48.54;101492.53;5032636;28;20084;-56
2023/06/10 09:35:30;;;;;;;12.52;7.70;;;;;;;23.94;48.26;101487.47;5032731;28;20526;-57
2023/06/10 09:37:59;;;;;;;13.43;6.88;;;;;;;24.00;48.57;101487.75;5033243;28;20481;-56
2023/06/10 09:40:27;;;;;;;11.27;8.05;;;;;;;23.78;48.82;101483.41;5032210;28;20596;-57
2023/06/10 09:43:03;;;;;;;19.13;8.15;;;;;;;23.78;48.65;101483.41;5033487;28;20132;-56
2023/06/10 09:45:31;;;;;;;12.90;7.47;;;;;;;24.18;47.24;101487.06;5033221;28;20049;-57
2023/06/10 09:47:58;;;;;;;13.82;7.22;;;;;;;24.14;47.72;101475.69;5032100;28;20136;-57
2023/06/10 09:50:25;;;;;;;16.45;8.52;;;;;;;24.41;46.33;101494.91;5013541;28;20125;-57
2023/06/10 09:52:52;;;;;;;15.00;8.30;;;;;;;24.36;46.90;101488.06;5013386;28;20081;-56
2023/06/10 09:55:19;;;;;;;15.45;8.30;;;;;;;24.46;45.92;101488.06;5013302;28;20049;-57
2023/06/10 09:57:49;;;;;;;13.70;7.95;;;;;;;24.82;45.34;101492.88;5019583;28;20045;-57
2023/06/10 10:00:16;;;;;;;12.93;7.75;;;;;;;25.00;45.29;101485.72;5033232;28;20354;-57
2023/06/10 10:02:51;;;;;;;13.82;7.70;;;;;;;25.13;45.09;101481.84;5032951;28;20162;-57
2023/06/10 10:05:21;;;;;;;11.45;7.13;;;;;;;25.23;44.69;101482.66;5033658;28;20049;-56
2023/06/10 10:07:48;;;;;;;16.97;7.23;;;;;;;25.37;44.87;101482.22;5031767;28;20049;-57
2023/06/10 10:10:16;;;;;;;15.70;8.18;;;;;;;25.22;44.92;101483.66;5032780;28;20081;-57
2023/06/10 10:12:46;;;;;;;14.45;7.78;;;;;;;25.58;44.05;101478.38;5032984;28;20093;-57
2023/06/10 10:15:16;;;;;;;12.65;6.72;;;;;;;26.07;43.62;101478.09;5031960;28;20085;-57
2023/06/10 10:17:48;;;;;;;16.05;8.15;;;;;;;26.09;43.01;101474.25;5032771;28;20379;-56
2023/06/10 10:20:20;;;;;;;18.85;6.35;;;;;;;26.45;42.51;101481.50;5032691;28;20524;-57
2023/06/10 10:22:49;;;;;;;17.33;6.95;;;;;;;26.69;41.81;101479.00;5032497;28;20115;-57
2023/06/10 10:25:22;;;;;;;15.45;6.90;;;;;;;26.51;42.32;101470.88;5031549;28;20140;-57
2023/06/10 10:28:09;;;;;;;10.93;7.28;;;;;;;26.76;41.68;101479.25;5032579;28;20057;-56
2023/06/10 10:30:42;;;;;;;12.18;7.60;;;;;;;26.72;41.42;101472.44;5031738;28;20469;-56
2023/06/10 10:33:16;;;;;;;14.35;7.25;;;;;;;26.56;42.71;101478.53;5030950;28;20129;-57
2023/06/10 10:35:43;;;;;;;15.50;6.93;;;;;;;26.56;42.44;101474.00;5031715;28;20053;-57
2023/06/10 10:38:10;;;;;;;10.95;7.03;;;;;;;27.08;41.69;101466.88;5032313;28;20166;-57
2023/06/10 10:40:38;;;;;;;15.00;7.90;;;;;;;26.64;42.11;101475.06;5032471;28;20068;-56
2023/06/10 10:43:05;;;;;;;11.07;6.30;;;;;;;26.62;42.34;101474.38;5031062;28;20057;-58
2023/06/10 10:45:35;;;;;;;14.02;7.43;;;;;;;25.92;42.82;101472.34;5032311;28;20059;-56
2023/06/10 10:48:11;;;;;;;14.18;7.38;;;;;;;26.07;42.96;101478.94;5031706;28;20080;-56
2023/06/10 10:50:40;;;;;;;16.20;7.63;;;;;;;26.61;42.55;101476.19;5030959;28;20076;-56
2023/06/10 10:53:07;;;;;;;11.88;7.32;;;;;;;26.31;42.92;101485.63;5034999;28;20132;-56
2023/06/10 10:55:33;;;;;;;14.50;7.25;;;;;;;26.23;43.14;101477.41;5036304;28;20595;-56
2023/06/10 10:58:08;;;;;;;13.20;6.57;;;;;;;26.38;42.55;101486.69;5035605;28;20053;-57
2023/06/10 11:00:37;;;;;;;13.75;7.90;;;;;;;26.31;42.59;101481.03;5035026;28;20108;-57
2023/06/10 11:03:04;;;;;;;14.00;7.47;;;;;;;25.86;42.95;101481.06;5035714;28;20357;-57
2023/06/10 11:05:44;;;;;;;16.67;7.10;;;;;;;25.26;42.99;101485.06;5035260;28;20448;-57
2023/06/10 11:08:11;;;;;;;16.45;7.63;;;;;;;24.97;43.58;101472.50;5036134;28;20064;-56
2023/06/10 11:10:50;;;;;;;11.90;7.78;;;;;;;25.62;42.28;101479.81;5034546;28;20081;-56
2023/06/10 11:13:19;;;;;;;12.02;5.70;;;;;;;25.73;41.88;101476.91;5035652;28;20073;-56
2023/06/10 11:15:49;;;;;;;12.45;6.45;;;;;;;25.58;42.10;101471.13;5035723;28;20060;-56
2023/06/10 11:18:26;;;;;;;15.73;7.88;;;;;;;25.10;42.81;101470.31;5050593;28;20037;-56